TimeEST,TemperatureF,Dew PointF,Humidity,Sea Level PressureIn,VisibilityMPH,Wind Direction,Wind SpeedMPH,Gust SpeedMPH,PrecipitationIn,Events,Conditions,WindDirDegrees,DateUTC
12:15 AM,35.6,19.4,52,30.25,10.0,SE,4.6,-,N/A,,Clear,140,2013-01-08 05:15:00
12:35 AM,37.4,17.6,45,30.25,10.0,Variable,4.6,-,N/A,,Clear,0,2013-01-08 05:35:00
12:55 AM,35.6,17.6,48,30.25,10.0,Calm,Calm,-,N/A,,Clear,0,2013-01-08 05:55:00
1:15 AM,33.8,19.4,56,30.26,10.0,NNE,3.5,-,N/A,,Clear,20,2013-01-08 06:15:00
1:35 AM,35.6,17.6,48,30.26,10.0,Calm,Calm,-,N/A,,Clear,0,2013-01-08 06:35:00
1:55 AM,33.8,17.6,52,30.26,10.0,Calm,Calm,-,N/A,,Clear,0,2013-01-08 06:55:00
2:15 AM,33.8,19.4,56,30.27,10.0,Calm,Calm,-,N/A,,Clear,0,2013-01-08 07:15:00
2:35 AM,33.8,17.6,52,30.27,10.0,Calm,Calm,-,N/A,,Clear,0,2013-01-08 07:35:00
2:55 AM,33.8,17.6,52,30.27,10.0,Calm,Calm,-,N/A,,Clear,0,2013-01-08 07:55:00
3:15 AM,33.8,17.6,52,30.27,10.0,SSE,4.6,-,N/A,,Clear,150,2013-01-08 08:15:00
3:35 AM,33.8,19.4,56,30.27,10.0,ESE,3.5,-,N/A,,Clear,120,2013-01-08 08:35:00
3:55 AM,35.6,19.4,52,30.27,10.0,Variable,3.5,-,N/A,,Clear,0,2013-01-08 08:55:00
4:15 AM,33.8,19.4,56,30.26,10.0,ESE,4.6,-,N/A,,Clear,110,2013-01-08 09:15:00
4:35 AM,32.0,19.4,60,30.25,10.0,ESE,3.5,-,N/A,,Clear,120,2013-01-08 09:35:00
4:55 AM,33.8,19.4,56,30.24,10.0,ESE,3.5,-,N/A,,Clear,120,2013-01-08 09:55:00
5:15 AM,35.6,19.4,52,30.26,10.0,SE,5.8,-,N/A,,Clear,140,2013-01-08 10:15:00
5:35 AM,35.6,19.4,52,30.27,10.0,SSE,5.8,-,N/A,,Clear,150,2013-01-08 10:35:00
5:55 AM,33.8,19.4,56,30.26,10.0,SE,3.5,-,N/A,,Clear,130,2013-01-08 10:55:00
6:15 AM,33.8,17.6,52,30.26,10.0,Calm,Calm,-,N/A,,Clear,0,2013-01-08 11:15:00
6:35 AM,35.6,17.6,48,30.26,10.0,Calm,Calm,-,N/A,,Clear,0,2013-01-08 11:35:00
6:55 AM,33.8,17.6,52,30.26,10.0,Calm,Calm,-,N/A,,Clear,0,2013-01-08 11:55:00
7:15 AM,32.0,19.4,60,30.29,10.0,Calm,Calm,-,N/A,,Clear,0,2013-01-08 12:15:00
7:35 AM,32.0,19.4,60,30.30,10.0,Calm,Calm,-,N/A,,Clear,0,2013-01-08 12:35:00
7:55 AM,32.0,17.6,55,30.30,10.0,Calm,Calm,-,N/A,,Clear,0,2013-01-08 12:55:00
8:35 AM,32.0,19.4,60,30.31,10.0,Calm,Calm,-,N/A,,Clear,0,2013-01-08 13:35:00
8:55 AM,35.6,21.2,56,30.31,10.0,Calm,Calm,-,N/A,,Clear,0,2013-01-08 13:55:00
9:15 AM,33.8,21.2,60,30.33,10.0,North,3.5,-,N/A,,Clear,360,2013-01-08 14:15:00
9:35 AM,33.8,19.4,56,30.34,10.0,Calm,Calm,-,N/A,,Clear,0,2013-01-08 14:35:00
9:55 AM,35.6,24.8,65,30.35,10.0,Calm,Calm,-,N/A,,Clear,0,2013-01-08 14:55:00
10:15 AM,37.4,23.0,56,30.35,10.0,Calm,Calm,-,N/A,,Clear,0,2013-01-08 15:15:00
10:35 AM,39.2,21.2,49,30.36,10.0,Calm,Calm,-,N/A,,Clear,0,2013-01-08 15:35:00
10:55 AM,39.2,24.8,56,30.36,10.0,Calm,Calm,-,N/A,,Clear,0,2013-01-08 15:55:00
11:15 AM,42.8,24.8,49,30.35,10.0,Calm,Calm,-,N/A,,Clear,0,2013-01-08 16:15:00
11:35 AM,42.8,24.8,49,30.35,10.0,Calm,Calm,-,N/A,,Clear,0,2013-01-08 16:35:00
11:55 AM,41.0,21.2,45,30.34,10.0,Calm,Calm,-,N/A,,Clear,0,2013-01-08 16:55:00
12:15 PM,44.6,24.8,46,30.34,10.0,Calm,Calm,-,N/A,,Clear,0,2013-01-08 17:15:00
12:35 PM,44.6,19.4,37,30.33,10.0,Variable,3.5,-,N/A,,Clear,0,2013-01-08 17:35:00
12:55 PM,46.4,19.4,34,30.32,10.0,Calm,Calm,-,N/A,,Clear,0,2013-01-08 17:55:00
1:15 PM,48.2,19.4,32,30.31,10.0,Variable,4.6,-,N/A,,Clear,0,2013-01-08 18:15:00
1:35 PM,48.2,21.2,34,30.30,10.0,Variable,4.6,-,N/A,,Clear,0,2013-01-08 18:35:00
1:55 PM,50.0,24.8,37,30.30,10.0,Variable,4.6,-,N/A,,Clear,0,2013-01-08 18:55:00
2:15 PM,50.0,26.6,40,30.29,10.0,Variable,3.5,-,N/A,,Clear,0,2013-01-08 19:15:00
2:35 PM,50.0,26.6,40,30.30,10.0,West,4.6,-,N/A,,Clear,260,2013-01-08 19:35:00
2:55 PM,50.0,24.8,37,30.30,10.0,WSW,5.8,-,N/A,,Clear,250,2013-01-08 19:55:00
3:15 PM,51.8,24.8,35,30.29,10.0,WSW,9.2,-,N/A,,Clear,240,2013-01-08 20:15:00
3:35 PM,51.8,24.8,35,30.30,10.0,West,4.6,-,N/A,,Clear,280,2013-01-08 20:35:00
3:55 PM,50.0,24.8,37,30.31,10.0,WSW,5.8,-,N/A,,Clear,250,2013-01-08 20:55:00
4:15 PM,50.0,24.8,37,30.31,10.0,West,5.8,-,N/A,,Clear,260,2013-01-08 21:15:00
4:35 PM,48.2,28.4,46,30.31,10.0,WSW,6.9,-,N/A,,Clear,240,2013-01-08 21:35:00
4:55 PM,48.2,28.4,46,30.30,10.0,WSW,5.8,-,N/A,,Clear,240,2013-01-08 21:55:00
5:15 PM,46.4,28.4,50,30.30,10.0,Variable,3.5,-,N/A,,Clear,0,2013-01-08 22:15:00
5:35 PM,46.4,28.4,50,30.29,10.0,Calm,Calm,-,N/A,,Clear,0,2013-01-08 22:35:00
5:55 PM,44.6,28.4,53,30.29,10.0,Calm,Calm,-,N/A,,Clear,0,2013-01-08 22:55:00
6:15 PM,44.6,28.4,53,30.29,10.0,SE,3.5,-,N/A,,Clear,140,2013-01-08 23:15:00
6:35 PM,44.6,26.6,49,30.28,10.0,SE,3.5,-,N/A,,Clear,140,2013-01-08 23:35:00
6:55 PM,42.8,28.4,57,30.28,10.0,SE,3.5,-,N/A,,Clear,140,2013-01-08 23:55:00
7:35 PM,46.4,19.4,34,30.29,10.0,SSE,3.5,-,N/A,,Clear,160,2013-01-09 00:35:00
7:55 PM,42.8,24.8,49,30.29,10.0,Calm,Calm,-,N/A,,Clear,0,2013-01-09 00:55:00
8:15 PM,44.6,21.2,39,30.29,10.0,Calm,Calm,-,N/A,,Clear,0,2013-01-09 01:15:00
8:35 PM,42.8,26.6,53,30.30,10.0,Calm,Calm,-,N/A,,Clear,0,2013-01-09 01:35:00
8:55 PM,41.0,26.6,57,30.29,10.0,Calm,Calm,-,N/A,,Clear,0,2013-01-09 01:55:00
9:15 PM,42.8,24.8,49,30.29,10.0,Calm,Calm,-,N/A,,Clear,0,2013-01-09 02:15:00
9:35 PM,44.6,21.2,39,30.28,10.0,Calm,Calm,-,N/A,,Clear,0,2013-01-09 02:35:00
9:55 PM,44.6,21.2,39,30.28,10.0,Calm,Calm,-,N/A,,Clear,0,2013-01-09 02:55:00
10:15 PM,44.6,21.2,39,30.29,10.0,Calm,Calm,-,N/A,,Clear,0,2013-01-09 03:15:00
10:35 PM,44.6,23.0,43,30.30,10.0,SE,3.5,-,N/A,,Clear,140,2013-01-09 03:35:00
10:55 PM,42.8,23.0,46,30.30,10.0,SSE,3.5,-,N/A,,Clear,150,2013-01-09 03:55:00
11:55 PM,44.6,26.6,49,30.29,10.0,SE,3.5,-,N/A,,Clear,140,2013-01-09 04:55:00